Time;durP1;ratioP1;P1;durP2;ratioP2;P2;SDS_P1;SDS_P2;PMS_P1;PMS_P2;Temp;Humidity;BMP_temperature;BMP_pressure;BME280_temperature;BME280_humidity;BME280_pressure;Samples;Min_cycle;Max_cycle;Signal;HPM_P1;HPM_P2
2022/03/07 00:01:16;;;;;;;;;;;6.60;44.30;;;;;;5054449;28;20001;-84
2022/03/07 00:03:42;;;;;;;;;;;6.70;44.20;;;;;;5038040;28;20353;-84
2022/03/07 00:06:08;;;;;;;;;;;6.70;44.30;;;;;;5062834;28;19921;-85
2022/03/07 00:08:33;;;;;;;;;;;6.70;44.20;;;;;;5073998;28;20287;-86
2022/03/07 00:11:02;;;;;;;;;;;6.70;44.30;;;;;;5043445;28;19913;-85
2022/03/07 00:13:27;;;;;;;;;;;6.70;44.20;;;;;;5050121;28;19916;-84
2022/03/07 00:15:52;;;;;;;;;;;6.70;44.20;;;;;;5056466;28;19923;-86
2022/03/07 00:18:18;;;;;;;;;;;6.80;44.20;;;;;;5073442;28;19920;-86
2022/03/07 00:20:49;;;;;;;;;;;6.80;44.20;;;;;;5074455;28;19924;-85
2022/03/07 00:23:15;;;;;;;;;;;6.80;44.10;;;;;;5062369;28;19960;-85
2022/03/07 00:25:41;;;;;;;;;;;6.90;44.10;;;;;;5036476;28;20374;-85
2022/03/07 00:28:06;;;;;;;;;;;6.90;44.10;;;;;;5036352;28;19924;-85
2022/03/07 00:30:32;;;;;;;;;;;6.90;44.00;;;;;;5067748;28;19935;-85
2022/03/07 00:32:57;;;;;;;;;;;6.90;44.00;;;;;;5073219;28;19917;-85
2022/03/07 00:35:23;;;;;;;;;;;6.90;44.00;;;;;;5055164;28;20260;-84
2022/03/07 00:37:48;;;;;;;;;;;6.90;44.00;;;;;;5055741;28;19925;-85
2022/03/07 00:40:14;;;;;;;;;;;7.00;44.00;;;;;;5041574;28;19923;-86
2022/03/07 00:42:39;;;;;;;;;;;6.90;44.00;;;;;;5055045;28;20379;-84
2022/03/07 00:45:06;;;;;;;;;;;7.00;44.00;;;;;;5058222;28;19943;-84
2022/03/07 00:47:31;;;;;;;;;;;7.00;44.00;;;;;;5042430;28;20023;-84
2022/03/07 00:49:58;;;;;;;;;;;7.00;44.00;;;;;;5067217;28;20384;-85
2022/03/07 00:52:24;;;;;;;;;;;7.00;44.00;;;;;;5064723;28;19958;-85
2022/03/07 00:54:49;;;;;;;;;;;7.00;44.00;;;;;;5069016;28;19913;-85
2022/03/07 00:57:15;;;;;;;;;;;7.00;43.90;;;;;;5054626;28;19928;-85
2022/03/07 00:59:40;;;;;;;;;;;7.00;44.00;;;;;;5073068;28;19912;-85
2022/03/07 01:02:06;;;;;;;;;;;7.00;43.90;;;;;;5044946;28;19921;-86
2022/03/07 01:04:31;;;;;;;;;;;7.00;44.00;;;;;;5036169;28;19919;-84
2022/03/07 01:06:57;;;;;;;;;;;7.10;43.90;;;;;;5048882;28;19959;-84
2022/03/07 01:09:22;;;;;;;;;;;7.10;43.90;;;;;;5069398;28;20007;-85
2022/03/07 01:11:48;;;;;;;;;;;7.10;44.00;;;;;;5073008;28;20187;-84
2022/03/07 01:14:13;;;;;;;;;;;7.10;43.90;;;;;;5034622;28;19917;-86
2022/03/07 01:16:39;;;;;;;;;;;7.10;43.90;;;;;;5048400;28;20403;-84
2022/03/07 01:19:04;;;;;;;;;;;7.10;43.90;;;;;;5062836;28;19913;-85
2022/03/07 01:21:30;;;;;;;;;;;7.10;43.90;;;;;;5052478;28;19947;-85
2022/03/07 01:23:55;;;;;;;;;;;7.20;43.90;;;;;;5034654;28;20323;-85
2022/03/07 01:26:20;;;;;;;;;;;7.20;43.90;;;;;;5044633;28;19927;-85
2022/03/07 01:28:46;;;;;;;;;;;7.20;43.90;;;;;;5041807;28;19912;-84
2022/03/07 01:31:11;;;;;;;;;;;7.20;43.90;;;;;;5034208;28;19940;-85
2022/03/07 01:33:38;;;;;;;;;;;7.20;44.00;;;;;;5048513;28;19939;-85
2022/03/07 01:36:04;;;;;;;;;;;7.20;44.00;;;;;;5055277;28;19917;-85
2022/03/07 01:38:29;;;;;;;;;;;7.20;44.00;;;;;;5068445;28;20288;-85
2022/03/07 01:40:55;;;;;;;;;;;7.20;44.00;;;;;;5064721;28;19913;-85
2022/03/07 01:43:21;;;;;;;;;;;7.20;44.10;;;;;;5034890;28;19917;-86
2022/03/07 01:45:47;;;;;;;;;;;7.20;44.10;;;;;;5045153;28;19919;-84
2022/03/07 01:48:12;;;;;;;;;;;7.20;44.20;;;;;;5055218;28;20303;-85
2022/03/07 01:50:38;;;;;;;;;;;7.20;44.20;;;;;;5034499;28;19921;-83
2022/03/07 01:53:03;;;;;;;;;;;7.20;44.20;;;;;;5034413;28;20388;-85
2022/03/07 01:55:29;;;;;;;;;;;7.20;44.20;;;;;;5068878;28;20443;-85
2022/03/07 01:57:54;;;;;;;;;;;7.20;44.20;;;;;;5064170;28;20429;-85
2022/03/07 02:00:21;;;;;;;;;;;7.20;44.30;;;;;;5050990;28;19916;-86
2022/03/07 02:02:47;;;;;;;;;;;7.20;44.30;;;;;;5042299;28;19928;-86
2022/03/07 02:05:12;;;;;;;;;;;7.20;44.30;;;;;;5055951;28;20245;-86
2022/03/07 02:07:38;;;;;;;;;;;7.20;44.30;;;;;;5056835;28;19932;-86
2022/03/07 02:10:06;;;;;;;;;;;7.20;44.40;;;;;;5075167;28;19916;-85
2022/03/07 02:12:32;;;;;;;;;;;7.20;44.30;;;;;;5075984;28;20003;-84
2022/03/07 02:14:57;;;;;;;;;;;7.30;44.40;;;;;;5070988;28;20003;-85
2022/03/07 02:17:23;;;;;;;;;;;7.30;44.30;;;;;;5074173;28;20295;-85
2022/03/07 02:19:48;;;;;;;;;;;7.30;44.30;;;;;;5057531;28;19916;-85
2022/03/07 02:22:17;;;;;;;;;;;7.30;44.30;;;;;;5042515;28;20338;-85
2022/03/07 02:24:43;;;;;;;;;;;7.30;44.30;;;;;;5037206;28;19913;-85
2022/03/07 02:27:09;;;;;;;;;;;7.30;44.30;;;;;;5037192;28;19928;-84
2022/03/07 02:29:35;;;;;;;;;;;7.30;44.40;;;;;;5038529;28;19935;-84
2022/03/07 02:32:01;;;;;;;;;;;7.30;44.40;;;;;;5036844;28;19917;-85
2022/03/07 02:34:26;;;;;;;;;;;7.30;44.40;;;;;;5053826;28;19912;-85
2022/03/07 02:36:52;;;;;;;;;;;7.30;44.40;;;;;;5074533;28;19916;-83
2022/03/07 02:39:18;;;;;;;;;;;7.30;44.40;;;;;;5055260;28;19958;-84
2022/03/07 02:41:43;;;;;;;;;;;7.30;44.40;;;;;;5058364;28;19951;-85
2022/03/07 02:44:09;;;;;;;;;;;7.30;44.40;;;;;;5074675;28;20037;-85
2022/03/07 02:46:34;;;;;;;;;;;7.30;44.40;;;;;;5047015;28;19940;-85
2022/03/07 02:49:00;;;;;;;;;;;7.30;44.40;;;;;;5074721;28;19917;-86
2022/03/07 02:51:26;;;;;;;;;;;7.30;44.40;;;;;;5058471;28;19952;-84
2022/03/07 02:53:51;;;;;;;;;;;7.30;44.40;;;;;;5055312;28;19921;-86
2022/03/07 02:56:17;;;;;;;;;;;7.30;44.40;;;;;;5039042;28;20323;-87
2022/03/07 02:58:43;;;;;;;;;;;7.20;44.30;;;;;;5040405;28;19940;-85
2022/03/07 03:01:09;;;;;;;;;;;7.20;44.40;;;;;;5068111;28;19921;-83
2022/03/07 03:03:34;;;;;;;;;;;7.20;44.40;;;;;;5037979;28;19924;-85
2022/03/07 03:06:00;;;;;;;;;;;7.20;44.40;;;;;;5067839;28;20051;-85
2022/03/07 03:08:26;;;;;;;;;;;7.20;44.40;;;;;;5055974;28;19923;-85
2022/03/07 03:10:52;;;;;;;;;;;7.20;44.50;;;;;;5065453;28;20007;-85
2022/03/07 03:13:20;;;;;;;;;;;7.30;44.50;;;;;;5046623;28;19924;-86
2022/03/07 03:15:46;;;;;;;;;;;7.20;44.50;;;;;;5040242;28;19916;-85
2022/03/07 03:18:12;;;;;;;;;;;7.20;44.50;;;;;;5063794;28;20336;-85
2022/03/07 03:20:38;;;;;;;;;;;7.30;44.50;;;;;;5058159;28;20011;-86
2022/03/07 03:23:04;;;;;;;;;;;7.20;44.50;;;;;;5076137;28;19947;-86
2022/03/07 03:25:30;;;;;;;;;;;7.30;44.50;;;;;;5057356;28;19986;-87
2022/03/07 03:27:56;;;;;;;;;;;7.20;44.50;;;;;;5045106;28;19920;-85
2022/03/07 03:30:21;;;;;;;;;;;7.30;44.50;;;;;;5074878;28;19917;-85
2022/03/07 03:32:47;;;;;;;;;;;7.30;44.50;;;;;;5056182;28;19908;-84
2022/03/07 03:35:13;;;;;;;;;;;7.30;44.60;;;;;;5050022;28;19991;-84
2022/03/07 03:37:38;;;;;;;;;;;7.20;44.60;;;;;;5071618;28;20418;-84
2022/03/07 03:40:07;;;;;;;;;;;7.20;44.60;;;;;;5036921;28;19943;-86
2022/03/07 03:42:32;;;;;;;;;;;7.20;44.60;;;;;;5046950;28;19952;-84
2022/03/07 03:44:58;;;;;;;;;;;7.20;44.60;;;;;;5055098;28;19998;-85
2022/03/07 03:47:23;;;;;;;;;;;7.20;44.60;;;;;;5054229;28;20016;-84
2022/03/07 03:49:49;;;;;;;;;;;7.10;44.60;;;;;;5056536;28;20282;-84
2022/03/07 03:52:14;;;;;;;;;;;7.20;44.60;;;;;;5074649;28;19921;-84
2022/03/07 03:54:40;;;;;;;;;;;7.20;44.60;;;;;;5067286;28;19917;-84
2022/03/07 03:57:05;;;;;;;;;;;7.20;44.60;;;;;;5057550;28;19960;-84
2022/03/07 03:59:33;;;;;;;;;;;7.10;44.70;;;;;;5071819;28;20287;-84
2022/03/07 04:01:59;;;;;;;;;;;7.10;44.70;;;;;;5065301;28;19931;-85
2022/03/07 04:04:24;;;;;;;;;;;7.10;44.70;;;;;;5058639;28;20607;-85
2022/03/07 04:06:50;;;;;;;;;;;7.10;44.70;;;;;;5056876;28;19920;-85
2022/03/07 04:09:19;;;;;;;;;;;7.10;44.70;;;;;;5039981;28;19920;-84
2022/03/07 04:11:45;;;;;;;;;;;7.10;44.80;;;;;;5058616;28;20272;-84
2022/03/07 04:14:11;;;;;;;;;;;7.10;44.80;;;;;;5056427;28;19920;-84
2022/03/07 04:16:38;;;;;;;;;;;7.20;44.80;;;;;;5069418;28;19924;-85
2022/03/07 04:19:07;;;;;;;;;;;7.20;44.80;;;;;;5041980;28;20421;-84
2022/03/07 04:21:33;;;;;;;;;;;7.20;44.80;;;;;;5041432;28;19981;-83
2022/03/07 04:23:59;;;;;;;;;;;7.10;44.80;;;;;;5073669;28;19916;-84
2022/03/07 04:26:25;;;;;;;;;;;7.20;44.70;;;;;;5074520;28;19928;-84
2022/03/07 04:28:51;;;;;;;;;;;7.20;44.70;;;;;;5061986;28;19909;-85
2022/03/07 04:31:16;;;;;;;;;;;7.20;44.70;;;;;;5041594;28;19917;-85
2022/03/07 04:33:42;;;;;;;;;;;7.10;44.70;;;;;;5049318;28;19909;-85
2022/03/07 04:36:07;;;;;;;;;;;7.10;44.70;;;;;;5052702;28;19960;-85
2022/03/07 04:38:33;;;;;;;;;;;7.10;44.80;;;;;;5043325;28;20013;-85
2022/03/07 04:40:58;;;;;;;;;;;7.10;44.80;;;;;;5067200;28;19920;-86
2022/03/07 04:43:24;;;;;;;;;;;7.10;44.80;;;;;;5063470;28;19912;-85
2022/03/07 04:45:52;;;;;;;;;;;7.10;44.80;;;;;;5055538;28;19920;-85
2022/03/07 04:48:18;;;;;;;;;;;7.10;44.80;;;;;;5072878;28;20007;-85
2022/03/07 04:50:44;;;;;;;;;;;7.10;44.80;;;;;;5056534;28;19921;-85
2022/03/07 04:53:10;;;;;;;;;;;7.10;44.80;;;;;;5057917;28;19912;-85
2022/03/07 04:55:35;;;;;;;;;;;7.10;44.80;;;;;;5070160;28;20007;-85
2022/03/07 04:58:01;;;;;;;;;;;7.10;44.80;;;;;;5049056;28;19923;-85
2022/03/07 05:00:26;;;;;;;;;;;7.00;44.90;;;;;;5038781;28;19919;-85
2022/03/07 05:02:53;;;;;;;;;;;7.00;44.90;;;;;;5066519;28;20284;-85
2022/03/07 05:05:19;;;;;;;;;;;6.90;44.90;;;;;;5034222;28;19928;-85
2022/03/07 05:07:44;;;;;;;;;;;6.90;44.90;;;;;;5046209;28;19921;-85
2022/03/07 05:10:10;;;;;;;;;;;6.80;45.00;;;;;;5070770;28;20283;-84
2022/03/07 05:12:35;;;;;;;;;;;6.80;45.00;;;;;;5054311;28;20000;-85
2022/03/07 05:15:02;;;;;;;;;;;6.70;45.10;;;;;;5038457;28;19913;-86
2022/03/07 05:17:27;;;;;;;;;;;6.60;45.20;;;;;;5066225;28;19963;-84
2022/03/07 05:19:52;;;;;;;;;;;6.60;45.50;;;;;;5054397;28;19948;-85
2022/03/07 05:22:18;;;;;;;;;;;6.50;45.50;;;;;;5043853;28;19921;-85
2022/03/07 05:24:44;;;;;;;;;;;6.40;45.50;;;;;;5034643;28;19913;-84
2022/03/07 05:27:09;;;;;;;;;;;6.40;45.50;;;;;;5052790;28;19924;-85
2022/03/07 05:29:35;;;;;;;;;;;6.30;45.50;;;;;;5051954;28;19912;-84
2022/03/07 05:32:01;;;;;;;;;;;6.20;45.50;;;;;;5036023;28;19916;-84
2022/03/07 05:34:26;;;;;;;;;;;6.10;45.40;;;;;;5038258;28;19920;-85
2022/03/07 05:36:52;;;;;;;;;;;6.00;45.40;;;;;;5036968;28;19963;-86
2022/03/07 05:39:18;;;;;;;;;;;5.80;45.30;;;;;;5056808;28;19916;-85
2022/03/07 05:41:43;;;;;;;;;;;5.70;45.30;;;;;;5037479;28;19986;-85
2022/03/07 05:44:09;;;;;;;;;;;5.60;45.40;;;;;;5056266;28;20316;-85
2022/03/07 05:46:34;;;;;;;;;;;5.40;45.70;;;;;;5056098;28;20257;-85
2022/03/07 05:49:00;;;;;;;;;;;5.30;45.70;;;;;;5056046;28;19931;-85
2022/03/07 05:51:25;;;;;;;;;;;5.20;45.70;;;;;;5038754;28;20566;-85
2022/03/07 05:53:54;;;;;;;;;;;5.00;45.70;;;;;;5060071;28;20414;-86
2022/03/07 05:56:19;;;;;;;;;;;4.90;45.80;;;;;;5074889;28;19960;-86
2022/03/07 05:58:46;;;;;;;;;;;4.80;46.00;;;;;;5064791;28;20705;-85
2022/03/07 06:01:12;;;;;;;;;;;4.70;46.10;;;;;;5050029;28;19952;-84
2022/03/07 06:03:38;;;;;;;;;;;4.60;46.30;;;;;;5051634;28;19923;-85
2022/03/07 06:06:03;;;;;;;;;;;4.60;46.60;;;;;;5046886;28;19920;-86
2022/03/07 06:08:29;;;;;;;;;;;4.70;47.00;;;;;;5073153;28;20011;-85
2022/03/07 06:10:54;;;;;;;;;;;4.70;47.20;;;;;;5055125;28;19920;-85
2022/03/07 06:13:20;;;;;;;;;;;4.70;47.30;;;;;;5053002;28;19909;-86
2022/03/07 06:15:45;;;;;;;;;;;4.80;47.50;;;;;;5073225;28;20304;-86
2022/03/07 06:18:11;;;;;;;;;;;5.00;47.90;;;;;;5066178;28;19908;-86
2022/03/07 06:20:37;;;;;;;;;;;5.10;48.30;;;;;;5065019;28;20431;-85
2022/03/07 06:23:04;;;;;;;;;;;5.30;48.80;;;;;;5066114;28;19916;-83
2022/03/07 06:25:33;;;;;;;;;;;5.70;49.30;;;;;;5067275;28;19909;-86
2022/03/07 06:27:59;;;;;;;;;;;6.00;49.70;;;;;;5061005;28;20277;-85
2022/03/07 06:30:25;;;;;;;;;;;6.40;50.00;;;;;;5064620;28;19995;-85
2022/03/07 06:32:50;;;;;;;;;;;6.80;50.30;;;;;;5040380;28;20018;-85
2022/03/07 06:35:16;;;;;;;;;;;7.20;50.50;;;;;;5041408;28;19913;-85
2022/03/07 06:37:45;;;;;;;;;;;7.70;50.50;;;;;;5051100;28;19962;-86
2022/03/07 06:40:10;;;;;;;;;;;8.20;50.40;;;;;;5065936;28;19932;-85
2022/03/07 06:42:36;;;;;;;;;;;8.60;50.40;;;;;;5052144;28;19921;-84
2022/03/07 06:45:01;;;;;;;;;;;9.00;50.30;;;;;;5048577;28;19909;-86
2022/03/07 06:47:28;;;;;;;;;;;9.50;50.10;;;;;;5044100;28;19935;-85
2022/03/07 06:49:56;;;;;;;;;;;9.90;49.80;;;;;;5066333;28;19917;-85
2022/03/07 06:52:21;;;;;;;;;;;10.40;49.70;;;;;;5058482;28;19916;-84
2022/03/07 06:54:47;;;;;;;;;;;10.80;49.30;;;;;;5053060;28;19931;-85
2022/03/07 06:57:13;;;;;;;;;;;11.30;48.90;;;;;;5048723;28;19923;-84
2022/03/07 06:59:38;;;;;;;;;;;11.80;48.70;;;;;;5057757;28;20019;-84
2022/03/07 07:02:04;;;;;;;;;;;12.20;48.30;;;;;;5074668;28;19920;-85
2022/03/07 07:04:29;;;;;;;;;;;12.70;47.90;;;;;;5055564;28;20282;-85
2022/03/07 07:07:00;;;;;;;;;;;13.10;46.40;;;;;;5075445;28;19924;-87
2022/03/07 07:09:25;;;;;;;;;;;13.50;45.70;;;;;;5041958;28;19947;-86
2022/03/07 07:11:51;;;;;;;;;;;13.90;45.50;;;;;;5047268;28;19952;-85
2022/03/07 07:14:16;;;;;;;;;;;14.30;45.20;;;;;;5057176;28;19908;-85
2022/03/07 07:16:42;;;;;;;;;;;14.70;44.90;;;;;;5071449;28;19920;-85
2022/03/07 07:19:07;;;;;;;;;;;15.10;44.40;;;;;;5055859;28;19908;-85
2022/03/07 07:21:33;;;;;;;;;;;15.60;44.00;;;;;;5047480;28;20011;-85
2022/03/07 07:23:58;;;;;;;;;;;16.00;43.40;;;;;;5072469;28;20386;-84
2022/03/07 07:26:24;;;;;;;;;;;16.40;42.80;;;;;;5073534;28;19920;-85
2022/03/07 07:28:49;;;;;;;;;;;16.70;42.10;;;;;;5046102;28;19920;-86
2022/03/07 07:31:14;;;;;;;;;;;17.20;41.80;;;;;;5073608;28;20375;-86
2022/03/07 07:33:40;;;;;;;;;;;17.50;40.80;;;;;;5074386;28;19921;-85
2022/03/07 07:36:05;;;;;;;;;;;17.80;38.60;;;;;;5050325;28;19916;-85
2022/03/07 07:38:31;;;;;;;;;;;18.10;38.30;;;;;;5050515;28;20344;-85
2022/03/07 07:40:56;;;;;;;;;;;18.40;37.30;;;;;;5055925;28;20053;-85
2022/03/07 07:43:22;;;;;;;;;;;18.70;36.30;;;;;;5071585;28;19966;-85
2022/03/07 07:45:47;;;;;;;;;;;18.90;35.60;;;;;;5047303;28;19913;-85
2022/03/07 07:48:13;;;;;;;;;;;19.10;35.00;;;;;;5045270;28;19923;-84
2022/03/07 07:50:38;;;;;;;;;;;19.20;34.20;;;;;;5069288;28;19925;-85
2022/03/07 07:53:04;;;;;;;;;;;19.40;33.70;;;;;;5071822;28;19912;-84
2022/03/07 07:55:29;;;;;;;;;;;19.70;33.10;;;;;;5068484;28;19916;-87
2022/03/07 07:57:55;;;;;;;;;;;19.90;33.20;;;;;;5053132;28;19913;-85
2022/03/07 08:00:21;;;;;;;;;;;20.20;33.50;;;;;;5045126;28;19920;-85
2022/03/07 08:02:47;;;;;;;;;;;20.50;33.00;;;;;;5053639;28;19962;-86
2022/03/07 08:05:13;;;;;;;;;;;20.80;33.00;;;;;;5044490;28;19944;-86
2022/03/07 08:07:41;;;;;;;;;;;21.10;31.40;;;;;;5070991;28;19925;-85
2022/03/07 08:10:07;;;;;;;;;;;21.30;31.30;;;;;;5071691;28;19916;-85
2022/03/07 08:12:33;;;;;;;;;;;21.60;31.10;;;;;;5042912;28;19948;-85
2022/03/07 08:14:58;;;;;;;;;;;21.80;30.70;;;;;;5045129;28;20362;-86
2022/03/07 08:17:24;;;;;;;;;;;22.00;30.30;;;;;;5053095;28;19921;-86
2022/03/07 08:19:49;;;;;;;;;;;22.20;29.80;;;;;;5067552;28;19913;-86
2022/03/07 08:22:16;;;;;;;;;;;22.20;29.30;;;;;;5068589;28;22305;-85
2022/03/07 08:24:42;;;;;;;;;;;22.30;28.70;;;;;;5071108;28;19916;-85
2022/03/07 08:27:07;;;;;;;;;;;22.30;28.10;;;;;;5071175;28;20276;-86
2022/03/07 08:29:33;;;;;;;;;;;22.30;27.80;;;;;;5071130;28;19919;-85
2022/03/07 08:31:58;;;;;;;;;;;22.30;27.80;;;;;;5071119;28;19938;-86
2022/03/07 08:34:24;;;;;;;;;;;22.30;27.30;;;;;;5070982;28;19959;-86
2022/03/07 08:36:49;;;;;;;;;;;22.20;26.60;;;;;;5042132;28;19921;-85
2022/03/07 08:39:15;;;;;;;;;;;22.20;26.30;;;;;;5047397;28;19913;-86
2022/03/07 08:41:40;;;;;;;;;;;22.20;26.60;;;;;;5065378;28;20094;-85
2022/03/07 08:44:06;;;;;;;;;;;22.20;27.20;;;;;;5052718;28;20011;-86
2022/03/07 08:46:31;;;;;;;;;;;22.40;27.60;;;;;;5043799;28;20074;-85
2022/03/07 08:48:56;;;;;;;;;;;22.60;26.90;;;;;;5070270;28;20004;-85
2022/03/07 08:51:22;;;;;;;;;;;22.70;26.50;;;;;;5045091;28;19931;-85
2022/03/07 08:53:47;;;;;;;;;;;23.00;26.50;;;;;;5049909;28;19920;-85
2022/03/07 08:56:13;;;;;;;;;;;23.20;26.60;;;;;;5045278;28;19927;-86
2022/03/07 08:58:39;;;;;;;;;;;23.30;26.30;;;;;;5051422;28;19912;-86
2022/03/07 09:01:05;;;;;;;;;;;23.40;26.40;;;;;;5048327;28;19928;-86
2022/03/07 09:03:30;;;;;;;;;;;23.50;25.70;;;;;;5051044;28;20389;-85
2022/03/07 09:05:56;;;;;;;;;;;23.50;25.40;;;;;;5048951;28;19920;-86
2022/03/07 09:08:21;;;;;;;;;;;23.40;25.20;;;;;;5049969;28;19917;-86
2022/03/07 09:10:47;;;;;;;;;;;23.40;25.20;;;;;;5050518;28;19921;-85
2022/03/07 09:13:12;;;;;;;;;;;23.50;25.10;;;;;;5049618;28;19962;-85
2022/03/07 09:15:39;;;;;;;;;;;23.70;25.50;;;;;;5046888;28;20367;-86
2022/03/07 09:18:05;;;;;;;;;;;23.80;25.20;;;;;;5050030;28;20438;-86
2022/03/07 09:20:30;;;;;;;;;;;24.00;25.10;;;;;;5050500;28;19916;-85
2022/03/07 09:22:56;;;;;;;;;;;24.00;25.10;;;;;;5050653;28;19936;-86
2022/03/07 09:25:21;;;;;;;;;;;24.20;24.80;;;;;;5050248;28;20003;-86
2022/03/07 09:27:47;;;;;;;;;;;24.30;23.90;;;;;;5049004;28;19920;-86
2022/03/07 09:30:13;;;;;;;;;;;24.20;23.80;;;;;;5048410;28;19978;-86
2022/03/07 09:32:38;;;;;;;;;;;24.20;24.50;;;;;;5048969;28;19974;-85
2022/03/07 09:35:04;;;;;;;;;;;24.40;24.30;;;;;;5048725;28;19972;-85
2022/03/07 09:37:30;;;;;;;;;;;24.60;24.40;;;;;;5050756;28;20379;-86
2022/03/07 09:39:55;;;;;;;;;;;24.60;23.10;;;;;;5050043;28;19917;-85
2022/03/07 09:42:21;;;;;;;;;;;24.50;23.00;;;;;;5050333;28;19917;-86
2022/03/07 09:44:47;;;;;;;;;;;24.60;22.80;;;;;;5050635;28;20394;-86
2022/03/07 09:47:13;;;;;;;;;;;24.60;23.00;;;;;;5049267;28;19921;-87
2022/03/07 09:49:39;;;;;;;;;;;24.70;23.20;;;;;;5053162;28;19920;-86
2022/03/07 09:52:04;;;;;;;;;;;24.80;22.80;;;;;;5042852;28;19920;-87
2022/03/07 09:54:30;;;;;;;;;;;24.90;22.70;;;;;;5045965;28;19917;-87
2022/03/07 09:56:55;;;;;;;;;;;25.00;23.00;;;;;;5044273;28;20450;-85
2022/03/07 09:59:21;;;;;;;;;;;25.10;22.90;;;;;;5043889;28;19917;-86
2022/03/07 10:02:00;;;;;;;;;;;25.20;22.90;;;;;;5058882;28;20003;-86
2022/03/07 10:04:25;;;;;;;;;;;25.30;22.50;;;;;;5037911;28;20365;-85
2022/03/07 10:06:51;;;;;;;;;;;25.30;23.00;;;;;;5043647;28;19921;-86
2022/03/07 10:09:21;;;;;;;;;;;25.50;22.80;;;;;;5042019;28;20390;-86
2022/03/07 10:11:51;;;;;;;;;;;25.50;23.00;;;;;;5040145;28;19920;-86
2022/03/07 10:14:17;;;;;;;;;;;25.50;22.90;;;;;;5061526;28;19935;-86
2022/03/07 10:16:43;;;;;;;;;;;25.50;22.00;;;;;;5060875;28;20375;-86
2022/03/07 10:19:09;;;;;;;;;;;25.30;21.50;;;;;;5041979;28;20639;-85
2022/03/07 10:21:35;;;;;;;;;;;25.00;21.70;;;;;;5043451;28;19921;-86
2022/03/07 10:24:00;;;;;;;;;;;24.70;21.50;;;;;;5062191;28;19943;-86
2022/03/07 10:26:32;;;;;;;;;;;24.60;21.70;;;;;;5062607;28;19916;-86
2022/03/07 10:28:58;;;;;;;;;;;24.70;22.20;;;;;;5064781;28;19934;-86
2022/03/07 10:31:24;;;;;;;;;;;24.80;22.30;;;;;;5062136;28;20379;-85
2022/03/07 10:34:00;;;;;;;;;;;24.90;21.80;;;;;;5043865;28;19974;-87
2022/03/07 10:36:29;;;;;;;;;;;24.70;20.80;;;;;;5064868;28;19920;-87
2022/03/07 10:38:55;;;;;;;;;;;24.60;21.30;;;;;;5064977;28;20302;-86
2022/03/07 10:41:30;;;;;;;;;;;24.50;20.90;;;;;;5059347;28;20023;-86
2022/03/07 10:43:56;;;;;;;;;;;24.50;21.20;;;;;;5045951;28;20392;-86
2022/03/07 10:46:25;;;;;;;;;;;24.50;21.30;;;;;;5062488;28;19913;-86
2022/03/07 10:48:50;;;;;;;;;;;24.50;21.10;;;;;;5061422;28;19943;-87
2022/03/07 10:51:17;;;;;;;;;;;24.50;21.10;;;;;;5065734;28;19921;-86
2022/03/07 10:53:42;;;;;;;;;;;24.50;21.40;;;;;;5039760;28;20236;-87
2022/03/07 10:56:10;;;;;;;;;;;24.70;21.20;;;;;;5042602;28;19912;-87
2022/03/07 10:58:44;;;;;;;;;;;24.80;21.50;;;;;;5063662;28;19925;-86
2022/03/07 11:01:09;;;;;;;;;;;25.10;20.80;;;;;;5058864;28;19990;-87
2022/03/07 11:03:37;;;;;;;;;;;25.10;20.80;;;;;;5058290;28;19960;-86
2022/03/07 11:06:02;;;;;;;;;;;25.20;20.70;;;;;;5043620;28;20002;-86
2022/03/07 11:08:28;;;;;;;;;;;25.20;20.40;;;;;;5063622;28;19952;-86
2022/03/07 11:10:55;;;;;;;;;;;25.20;19.90;;;;;;5064466;28;19912;-86
2022/03/07 11:13:26;;;;;;;;;;;24.70;19.90;;;;;;5045965;28;20273;-86
2022/03/07 11:15:53;;;;;;;;;;;24.60;20.70;;;;;;5047418;28;20007;-86
2022/03/07 11:18:19;;;;;;;;;;;24.80;20.60;;;;;;5060676;28;19999;-87
2022/03/07 11:20:45;;;;;;;;;;;25.00;20.60;;;;;;5068333;28;20069;-87
2022/03/07 11:23:12;;;;;;;;;;;25.30;20.50;;;;;;5040360;28;19923;-85
2022/03/07 11:25:40;;;;;;;;;;;25.50;20.70;;;;;;5046607;28;19912;-86
2022/03/07 11:28:06;;;;;;;;;;;25.60;19.70;;;;;;5067389;28;20334;-87
2022/03/07 11:30:33;;;;;;;;;;;25.50;19.40;;;;;;5044131;28;19908;-87
2022/03/07 11:33:07;;;;;;;;;;;25.40;19.00;;;;;;5062714;28;20023;-88
2022/03/07 11:35:32;;;;;;;;;;;25.10;19.10;;;;;;5043612;28;19917;-87
2022/03/07 11:38:08;;;;;;;;;;;24.70;19.60;;;;;;5065660;28;19927;-88
2022/03/07 11:40:34;;;;;;;;;;;24.60;19.60;;;;;;5043474;28;19923;-87
2022/03/07 11:43:06;;;;;;;;;;;24.00;18.80;;;;;;5046937;28;20008;-87
2022/03/07 11:45:38;;;;;;;;;;;23.20;19.40;;;;;;5064602;28;19913;-86
2022/03/07 11:48:11;;;;;;;;;;;22.60;19.90;;;;;;5069683;28;19938;-87
2022/03/07 11:50:37;;;;;;;;;;;22.30;20.10;;;;;;5043748;28;19921;-86
2022/03/07 11:53:03;;;;;;;;;;;22.10;20.40;;;;;;5061410;28;20043;-86
2022/03/07 11:55:29;;;;;;;;;;;22.20;20.60;;;;;;5042162;28;19916;-86
2022/03/07 11:57:59;;;;;;;;;;;22.10;20.70;;;;;;5045047;28;20011;-88
2022/03/07 12:00:31;;;;;;;;;;;22.10;21.00;;;;;;5061885;28;19909;-88
2022/03/07 12:02:57;;;;;;;;;;;22.30;21.30;;;;;;5040807;28;20003;-86
2022/03/07 12:05:23;;;;;;;;;;;22.50;21.20;;;;;;5048000;28;19913;-86
2022/03/07 12:07:49;;;;;;;;;;;22.70;21.10;;;;;;5042857;28;19929;-85
2022/03/07 12:10:14;;;;;;;;;;;22.90;21.20;;;;;;5059054;28;19913;-87
2022/03/07 12:12:41;;;;;;;;;;;23.00;21.00;;;;;;5044911;28;19928;-86
2022/03/07 12:15:08;;;;;;;;;;;23.00;20.40;;;;;;5041055;28;19913;-86
2022/03/07 12:17:33;;;;;;;;;;;22.90;20.00;;;;;;5056372;28;19920;-88
2022/03/07 12:19:59;;;;;;;;;;;22.70;20.10;;;;;;5040791;28;20273;-86
2022/03/07 12:22:26;;;;;;;;;;;22.40;20.40;;;;;;5047217;28;19912;-86
2022/03/07 12:24:54;;;;;;;;;;;22.30;20.90;;;;;;5057170;28;19913;-87
2022/03/07 12:27:22;;;;;;;;;;;22.40;20.80;;;;;;5064760;28;19917;-86
2022/03/07 12:29:49;;;;;;;;;;;22.60;21.10;;;;;;5061401;28;19920;-85
2022/03/07 12:32:15;;;;;;;;;;;22.70;20.50;;;;;;5043372;28;20434;-85
2022/03/07 12:34:41;;;;;;;;;;;22.60;20.30;;;;;;5046049;28;19971;-85
2022/03/07 12:37:21;;;;;;;;;;;22.30;20.30;;;;;;5061466;28;20262;-87
2022/03/07 12:39:49;;;;;;;;;;;22.10;20.60;;;;;;5068731;28;19921;-86
2022/03/07 12:42:17;;;;;;;;;;;22.20;21.30;;;;;;5043294;28;19909;-86
2022/03/07 12:44:43;;;;;;;;;;;22.30;21.20;;;;;;5064243;28;19917;-86
2022/03/07 12:47:09;;;;;;;;;;;22.40;20.80;;;;;;5064106;28;19920;-85
2022/03/07 12:49:35;;;;;;;;;;;22.40;21.00;;;;;;5046389;28;19924;-86
2022/03/07 12:52:06;;;;;;;;;;;22.50;21.30;;;;;;5066119;28;19920;-87
2022/03/07 12:54:38;;;;;;;;;;;22.50;20.90;;;;;;5045190;28;20007;-87
2022/03/07 12:57:04;;;;;;;;;;;22.50;21.20;;;;;;5048930;28;19921;-85
2022/03/07 12:59:31;;;;;;;;;;;22.20;20.50;;;;;;5066927;28;19927;-86
2022/03/07 13:01:57;;;;;;;;;;;21.70;20.60;;;;;;5067645;28;20390;-85
2022/03/07 13:04:27;;;;;;;;;;;21.30;21.10;;;;;;5046634;28;19931;-87
2022/03/07 13:06:55;;;;;;;;;;;21.20;21.50;;;;;;5064648;28;19958;-86
2022/03/07 13:09:29;;;;;;;;;;;21.00;21.50;;;;;;5048801;28;19912;-86
2022/03/07 13:11:54;;;;;;;;;;;20.80;21.80;;;;;;5041161;28;19924;-86
2022/03/07 13:14:23;;;;;;;;;;;20.80;22.00;;;;;;5065822;28;19913;-85
2022/03/07 13:16:48;;;;;;;;;;;20.40;22.10;;;;;;5042393;28;20368;-86
2022/03/07 13:19:14;;;;;;;;;;;19.90;22.60;;;;;;5045598;28;19913;-86
2022/03/07 13:21:40;;;;;;;;;;;19.30;22.90;;;;;;5044630;28;19982;-85
2022/03/07 13:24:07;;;;;;;;;;;18.50;23.10;;;;;;5046158;28;20284;-87
2022/03/07 13:26:33;;;;;;;;;;;17.80;23.80;;;;;;5035827;28;20033;-87
2022/03/07 13:29:09;;;;;;;;;;;17.20;24.60;;;;;;5065995;28;20435;-86
2022/03/07 13:31:42;;;;;;;;;;;16.80;25.20;;;;;;5043920;28;19924;-84
2022/03/07 13:34:07;;;;;;;;;;;16.30;25.70;;;;;;5041351;28;19920;-86
2022/03/07 13:36:43;;;;;;;;;;;16.00;26.10;;;;;;5061822;28;19920;-85
2022/03/07 13:39:19;;;;;;;;;;;15.80;26.50;;;;;;5044805;28;19931;-85
2022/03/07 13:41:49;;;;;;;;;;;15.50;26.80;;;;;;5044005;28;19921;-85
2022/03/07 13:44:14;;;;;;;;;;;15.40;27.10;;;;;;5059982;28;19966;-85
2022/03/07 13:46:50;;;;;;;;;;;15.20;27.30;;;;;;5043026;28;19912;-85
2022/03/07 13:49:15;;;;;;;;;;;15.10;27.50;;;;;;5061207;28;19909;-86
2022/03/07 13:51:41;;;;;;;;;;;14.90;27.80;;;;;;5058734;28;19943;-85
2022/03/07 13:54:06;;;;;;;;;;;14.80;28.20;;;;;;5049397;28;20364;-86
2022/03/07 13:56:32;;;;;;;;;;;14.70;28.40;;;;;;5061254;28;19920;-87
2022/03/07 13:58:57;;;;;;;;;;;14.60;28.50;;;;;;5047395;28;19912;-85
2022/03/07 14:01:28;;;;;;;;;;;14.50;28.80;;;;;;5064129;28;19917;-86
2022/03/07 14:03:53;;;;;;;;;;;14.40;29.10;;;;;;5050916;28;19916;-84
2022/03/07 14:06:19;;;;;;;;;;;14.40;29.40;;;;;;5043376;28;19921;-85
2022/03/07 14:08:45;;;;;;;;;;;14.40;29.50;;;;;;5046547;28;20383;-86
2022/03/07 14:11:13;;;;;;;;;;;14.40;29.70;;;;;;5047507;28;19913;-85
2022/03/07 14:13:43;;;;;;;;;;;14.30;29.50;;;;;;5064314;28;20352;-85
2022/03/07 14:16:09;;;;;;;;;;;14.20;29.60;;;;;;5048514;28;19912;-85
2022/03/07 14:18:34;;;;;;;;;;;14.10;29.60;;;;;;5061177;28;20475;-85